Lawton, Kentucky
Current Conditions -  °F | °C
As of 12:50 AM on Thursday 23 Oct 2014 (Local Time) from KSYM Reporting Station
Overcast Overcast  
Wind Chill: 48°   Ceiling: 2500
Heat Index: 48°   Visibility: 10mi
Dew Point: 39°   Wind: 0mph
Humidity: 71%   Direction: NA
Pressure: 30.26"   Gusts: NA
Location:  38.3543°N, 83.1837°W
Report Text: KSYM 230450Z AUTO 00000KT 10SM OVC025 09/04 A3026 RMK AO2
Loading
Personal Weather Stations






























Interactive Weather Map
Tropical Storm Tracking
New forecast layout! Learn more

10-Day Weather Forecast

Advertisements
Track Severe Weather on mobile